Jennifer C — WDI8828 — position and weather

sailwx.info

Track history (hours):
 
Tides and Currents Weather Stations Pressure Air Temp Water Temp Dewpoint Dewpoint Depression Visibility Wind Speed Wind Dir Waves Ship Positions

Jennifer C

Owner: Cross Sound Ferry Services, Inc, New London, CT. More information available from US FCC via Universal Licensing System and Coast Guard Vessel Documentation Center.

Last reported at 2017-Dec-15 19:55 UTC. Time now 2017-Dec-17 12:01 UTC.
Position N 41°17' W 072°06'.

Length 63 m.

Type: Passenger vessel. MMSI: 367742540.

Date/timePositionNaut miles runAvg speedWind from/ knotsBaromVisibWave heightAir tempDewpointWater temp
2017-Dec-15 19:55N 41°17' W 072°06'613.4
2017-Dec-15 19:28N 41°12' W 072°11'1 0.8
2017-Dec-15 18:04N 41°12' W 072°13'210.5
2017-Dec-15 17:54N 41°13' W 072°11'5 2.4
2017-Dec-15 15:55N 41°16' W 072°06'613.8
2017-Dec-15 15:30N 41°12' W 072°11'5 0.2
2017-Dec-14 17:45N 41°15' W 072°06'514.4
2017-Dec-14 17:25N 41°12' W 072°11'1 0.6
2017-Dec-14 15:56N 41°13' W 072°12'7 3.5
2017-Dec-14 14:01N 41°17' W 072°05'012.9
2017-Dec-14 13:59N 41°17' W 072°06'612.4
2017-Dec-14 13:30N 41°12' W 072°11'2 1.2
2017-Dec-14 11:57N 41°11' W 072°13'713.9
2017-Dec-14 11:25N 41°17' W 072°06'1 0.0
2017-Dec-13 01:37N 41°17' W 072°06'213.8
2017-Dec-13 01:30N 41°15' W 072°07'5 3.5
2017-Dec-12 23:59N 41°12' W 072°13'7 3.5
2017-Dec-12 21:58N 41°17' W 072°06'611.7
2017-Dec-12 21:28N 41°12' W 072°11'1 0.6
2017-Dec-12 19:49N 41°13' W 072°11'413.2
2017-Dec-12 19:30N 41°16' W 072°07'1 0.5
2017-Dec-12 17:50N 41°17' W 072°06'413.4
2017-Dec-12 17:30N 41°13' W 072°10'5 3.9
2017-Dec-12 16:20N 41°09' W 072°13'4 9.9
2017-Dec-12 15:54N 41°13' W 072°10'5 2.5
2017-Dec-12 13:52N 41°17' W 072°06'513.9
2017-Dec-12 13:31N 41°13' W 072°10'5 4.0
2017-Dec-12 12:17N 41°09' W 072°14'311.2
2017-Dec-12 12:00N 41°12' W 072°13'7 0.7
2017-Dec-12 01:38N 41°17' W 072°05'213.5
2017-Dec-12 01:30N 41°16' W 072°07'714.1
2017-Dec-12 01:01N 41°11' W 072°13'3 2.8
2017-Dec-11 23:48N 41°13' W 072°10'2 1.2
2017-Dec-11 21:47N 41°15' W 072°08'311.6
2017-Dec-11 21:30N 41°13' W 072°11'1 0.8
2017-Dec-11 19:55N 41°12' W 072°13'5 2.5
2017-Dec-11 17:47N 41°15' W 072°07'412.7
2017-Dec-11 17:30N 41°13' W 072°10'1 1.0
2017-Dec-11 16:02N 41°12' W 072°12'011.3
2017-Dec-11 16:00N 41°12' W 072°12'7 3.2
2017-Dec-11 13:55N 41°17' W 072°05'613.7
2017-Dec-11 13:29N 41°13' W 072°11'1 0.9
2017-Dec-11 12:06N 41°12' W 072°12'3 9.9
2017-Dec-11 11:48N 41°13' W 072°08'  
2017-Dec-08 01:42N 41°17' W 072°05'312.9
2017-Dec-08 01:30N 41°15' W 072°07'6 5.3
2017-Dec-08 00:19N 41°11' W 072°14'4 9.4
2017-Dec-07 23:55N 41°13' W 072°10'4 2.0
2017-Dec-07 21:50N 41°15' W 072°05'514.3
2017-Dec-07 21:27N 41°12' W 072°11'1 0.8
2017-Dec-07 20:07N 41°12' W 072°12'210.0
2017-Dec-07 19:54N 41°13' W 072°10'5 3.0
2017-Dec-07 18:06N 41°17' W 072°05'312.8
2017-Dec-07 17:52N 41°15' W 072°08'411.4
2017-Dec-07 17:30N 41°12' W 072°12'1 0.5
2017-Dec-07 15:57N 41°12' W 072°13'7 3.7
2017-Dec-07 14:01N 41°17' W 072°06'011.7
2017-Dec-07 13:59N 41°16' W 072°06'612.0
2017-Dec-07 13:30N 41°12' W 072°11'1 0.9
2017-Dec-07 12:01N 41°12' W 072°13'011.1
2017-Dec-07 12:00N 41°12' W 072°12'7 0.7
2017-Dec-07 01:39N 41°17' W 072°06'212.2
2017-Dec-07 01:29N 41°15' W 072°08'612.5
2017-Dec-07 01:00N 41°11' W 072°13'0 0.3
2017-Dec-07 00:09N 41°11' W 072°14'311.2
2017-Dec-06 23:54N 41°13' W 072°11'5 2.4
2017-Dec-06 21:49N 41°16' W 072°06'514.5
2017-Dec-06 21:28N 41°13' W 072°11'  
Track history (hours):
 
Tides and Currents Weather Stations Pressure Air Temp Water Temp Dewpoint Dewpoint Depression Visibility Wind Speed Wind Dir Waves Ship Positions

Jennifer C

Owner: Cross Sound Ferry Services, Inc, New London, CT. More information available from US FCC via Universal Licensing System and Coast Guard Vessel Documentation Center.

Last reported at 2017-Dec-15 19:55 UTC. Time now 2017-Dec-17 12:01 UTC.
Position N 41°17' W 072°06'.

Length 63 m.

Type: Passenger vessel. MMSI: 367742540.

Date/timePositionNaut miles runAvg speedWind from/ knotsBaromVisibWave heightAir tempDewpointWater temp
2017-Dec-15 19:55N 41°17' W 072°06'613.4
2017-Dec-15 19:28N 41°12' W 072°11'1 0.8
2017-Dec-15 18:04N 41°12' W 072°13'210.5
2017-Dec-15 17:54N 41°13' W 072°11'5 2.4
2017-Dec-15 15:55N 41°16' W 072°06'613.8
2017-Dec-15 15:30N 41°12' W 072°11'5 0.2
2017-Dec-14 17:45N 41°15' W 072°06'514.4
2017-Dec-14 17:25N 41°12' W 072°11'1 0.6
2017-Dec-14 15:56N 41°13' W 072°12'7 3.5
2017-Dec-14 14:01N 41°17' W 072°05'012.9
2017-Dec-14 13:59N 41°17' W 072°06'612.4
2017-Dec-14 13:30N 41°12' W 072°11'2 1.2
2017-Dec-14 11:57N 41°11' W 072°13'713.9
2017-Dec-14 11:25N 41°17' W 072°06'1 0.0
2017-Dec-13 01:37N 41°17' W 072°06'213.8
2017-Dec-13 01:30N 41°15' W 072°07'5 3.5
2017-Dec-12 23:59N 41°12' W 072°13'7 3.5
2017-Dec-12 21:58N 41°17' W 072°06'611.7
2017-Dec-12 21:28N 41°12' W 072°11'1 0.6
2017-Dec-12 19:49N 41°13' W 072°11'413.2
2017-Dec-12 19:30N 41°16' W 072°07'1 0.5
2017-Dec-12 17:50N 41°17' W 072°06'413.4
2017-Dec-12 17:30N 41°13' W 072°10'5 3.9
2017-Dec-12 16:20N 41°09' W 072°13'4 9.9
2017-Dec-12 15:54N 41°13' W 072°10'5 2.5
2017-Dec-12 13:52N 41°17' W 072°06'513.9
2017-Dec-12 13:31N 41°13' W 072°10'5 4.0
2017-Dec-12 12:17N 41°09' W 072°14'311.2
2017-Dec-12 12:00N 41°12' W 072°13'7 0.7
2017-Dec-12 01:38N 41°17' W 072°05'213.5
2017-Dec-12 01:30N 41°16' W 072°07'714.1
2017-Dec-12 01:01N 41°11' W 072°13'3 2.8
2017-Dec-11 23:48N 41°13' W 072°10'2 1.2
2017-Dec-11 21:47N 41°15' W 072°08'311.6
2017-Dec-11 21:30N 41°13' W 072°11'1 0.8
2017-Dec-11 19:55N 41°12' W 072°13'5 2.5
2017-Dec-11 17:47N 41°15' W 072°07'412.7
2017-Dec-11 17:30N 41°13' W 072°10'1 1.0
2017-Dec-11 16:02N 41°12' W 072°12'011.3
2017-Dec-11 16:00N 41°12' W 072°12'7 3.2
2017-Dec-11 13:55N 41°17' W 072°05'613.7
2017-Dec-11 13:29N 41°13' W 072°11'1 0.9
2017-Dec-11 12:06N 41°12' W 072°12'3 9.9
2017-Dec-11 11:48N 41°13' W 072°08'  
2017-Dec-08 01:42N 41°17' W 072°05'312.9
2017-Dec-08 01:30N 41°15' W 072°07'6 5.3
2017-Dec-08 00:19N 41°11' W 072°14'4 9.4
2017-Dec-07 23:55N 41°13' W 072°10'4 2.0
2017-Dec-07 21:50N 41°15' W 072°05'514.3
2017-Dec-07 21:27N 41°12' W 072°11'1 0.8
2017-Dec-07 20:07N 41°12' W 072°12'210.0
2017-Dec-07 19:54N 41°13' W 072°10'5 3.0
2017-Dec-07 18:06N 41°17' W 072°05'312.8
2017-Dec-07 17:52N 41°15' W 072°08'411.4
2017-Dec-07 17:30N 41°12' W 072°12'1 0.5
2017-Dec-07 15:57N 41°12' W 072°13'7 3.7
2017-Dec-07 14:01N 41°17' W 072°06'011.7
2017-Dec-07 13:59N 41°16' W 072°06'612.0
2017-Dec-07 13:30N 41°12' W 072°11'1 0.9
2017-Dec-07 12:01N 41°12' W 072°13'011.1
2017-Dec-07 12:00N 41°12' W 072°12'7 0.7
2017-Dec-07 01:39N 41°17' W 072°06'212.2
2017-Dec-07 01:29N 41°15' W 072°08'612.5
2017-Dec-07 01:00N 41°11' W 072°13'0 0.3
2017-Dec-07 00:09N 41°11' W 072°14'311.2
2017-Dec-06 23:54N 41°13' W 072°11'5 2.4
2017-Dec-06 21:49N 41°16' W 072°06'514.5
2017-Dec-06 21:28N 41°13' W 072°11'  

Dump ship's entire track history